Wolf, WY (82844)

9:09 PM MST on February 05, 2016 (GMT -0700)
KWYSHERI2 | | Change Station
CLOSE
Current Station
Personal Weather Station
Location: Sheridan, WY
Elevation: 3828 ft
Nearby Weather Stations
Active Advisory: High Wind Watch

Elev 3828 ft 44.81 °N, 106.98 °W | Updated 7 minutes ago

Clear
Clear
23.8 °F
Feels Like 24 °F
N
0.0
Wind Variable Wind from SSE
Gusts 0.0 mph

Today
High -- | Low -- °F
--% Chance of Precip.
Yesterday
High -- | Low -- °F
Precip. -- in
Pressure 30.26 in
Visibility -9999.0 miles
Clouds Clear
Windchill 24 °F
Dew Point 14 °F
Humidity 67%
Rainfall 0.00 in
Snow Depth Not available.
7:23 AM 5:22 PM
Waning Crescent, 8% visible
METAR KSHR 060353Z AUTO 18006KT CLR M06/M11 A3012 RMK AO2 SLP245 T10561106 $
Pressure 30.26 in
Visibility -9999.0 miles
Clouds Clear
Windchill 24 °F
Dew Point 14 °F
Humidity 67%
Rainfall 0.00 in
Snow Depth Not available.
7:23 AM 5:22 PM
Waning Crescent, 8% visible
METAR KSHR 060353Z AUTO 18006KT CLR M06/M11 A3012 RMK AO2 SLP245 T10561106 $

10-Day Weather Forecast

Almanac

Astronomy

Feb. 05, 2016 Rise Set
Actual Time
Civil Twilight
Nautical Twilight
Astronomical Twilight
Moon
Length of Visible Light
Length of Day
Tomorrow will be .
, % of the Moon is Illuminated

Today's Extremes

State Highs State Lows

Community

WunderPhotos

Upload Photos

1,890,916 photos uploaded!

WunderBlog® & News

Nearby

Air Quality

  Air Quality AQ Index Pollutant
Not available.

Snow Depth

Station Depth Elevation

Earthquake Activity

City Distance Mag. Time & Date
Minimum magnitude displayed is 2.5.

Coastal Water Temperatures

Place Temperature

Stations

Nearby Weather Stations

Station Location Temp. Windchill Dew Point Humidity Wind Precip. Elev Updated Type
                   

Watches & Warnings

High Wind Watch
Issued: 8:40 PM MST Feb. 5, 2016 – National Weather Service

... High wind watch remains in effect from 6 am MST Saturday
through Saturday evening...

* impacts... dangerous cross winds could make travel hazardous
for high profile and Load carrying vehicles.

* Timing... west to northwest winds will increase Saturday
morning from Judith Gap to the beartooth foothills and spread
east through the day behind a cold front. Winds are expected
to diminish Saturday evening.

* Winds... peak gusts from 60 to 70 mph are possible.

Precautionary/preparedness actions...

Winds of these magnitudes can cause property damage without extra
precautions. Motorists in high profile vehicles should use
caution until the winds subside.